KGFK

Grand Forks International Airport

Grand Forks, North Dakota, USA
KGFK 221138Z 2212/2312 18008KT P6SM SCT070 OVC100 FM221700 33008KT P6SM BKN060 FM221900 02009KT P6SM BKN045 FM222000 03013G19KT P6SM BKN030 FM230500 05013KT P6SM SCT008 OVC015
Issued Valid From Valid To
Sep-22 @ 11:38 UTC
(3 hours ago)
Sep-22 @ 12:00 UTC
(3 hours ago)
Sep-23 @ 12:00 UTC
(in 21 hours)
to
to
to
to
to
KGFK 221138Z 2212/2312 18008KT P6SM SCT070 OVC100 FM221700 33008KT P6SM BKN060 FM221900 02009KT P6SM BKN045 FM222000 03013G19KT P6SM BKN030 FM230500 05013KT P6SM SCT008 OVC015
Issued Sep-22 @ 11:38 UTC
(3 hours ago)
Valid From Sep-22 @ 12:00 UTC
(3 hours ago)
Valid To Sep-23 @ 12:00 UTC
(in 21 hours)
-
-
-
-
-